Time;durP1;ratioP1;P1;durP2;ratioP2;P2;SDS_P1;SDS_P2;PMS_P1;PMS_P2;Temp;Humidity;BMP_temperature;BMP_pressure;BME280_temperature;BME280_humidity;BME280_pressure;Samples;Min_cycle;Max_cycle;Signal;HPM_P1;HPM_P2
2023/03/08 00:02:00;;;;;;;28.92;11.60;;;3.80;99.90;;;;;;5091057;28;20052;-50
2023/03/08 00:04:27;;;;;;;23.65;11.13;;;3.80;99.90;;;;;;5088840;28;20078;-50
2023/03/08 00:06:54;;;;;;;20.20;8.57;;;3.70;99.90;;;;;;5079029;28;20098;-51
2023/03/08 00:09:20;;;;;;;23.10;8.75;;;3.70;99.90;;;;;;5080667;28;20545;-50
2023/03/08 00:11:47;;;;;;;25.85;11.20;;;3.70;99.90;;;;;;5086947;28;20064;-51
2023/03/08 00:14:14;;;;;;;24.40;11.27;;;3.70;99.90;;;;;;5082820;28;20093;-50
2023/03/08 00:16:40;;;;;;;21.15;7.60;;;3.70;99.90;;;;;;5076577;28;20048;-51
2023/03/08 00:19:07;;;;;;;23.45;9.90;;;3.60;99.90;;;;;;5080094;28;20072;-50
2023/03/08 00:21:34;;;;;;;25.88;9.82;;;3.50;99.90;;;;;;5071741;28;20044;-51
2023/03/08 00:24:01;;;;;;;25.55;10.10;;;3.40;99.90;;;;;;5072486;28;20064;-50
2023/03/08 00:26:27;;;;;;;23.13;9.85;;;3.40;99.90;;;;;;5091079;28;20066;-50
2023/03/08 00:28:54;;;;;;;23.38;9.80;;;3.30;99.90;;;;;;5092069;28;20044;-51
2023/03/08 00:31:21;;;;;;;24.70;11.13;;;3.20;99.90;;;;;;5069135;28;20567;-50
2023/03/08 00:33:52;;;;;;;20.90;10.25;;;3.30;99.90;;;;;;5069726;28;20492;-51
2023/03/08 00:36:19;;;;;;;27.42;11.00;;;3.40;99.90;;;;;;5091846;28;20043;-51
2023/03/08 00:38:47;;;;;;;28.30;10.85;;;3.40;99.90;;;;;;5078274;28;20036;-51
2023/03/08 00:41:14;;;;;;;26.73;11.10;;;3.30;99.90;;;;;;5074692;28;20051;-50
2023/03/08 00:43:41;;;;;;;23.15;9.38;;;3.40;99.90;;;;;;5073293;28;20483;-50
2023/03/08 00:46:08;;;;;;;26.98;10.30;;;3.30;99.90;;;;;;5071904;28;20070;-51
2023/03/08 00:48:35;;;;;;;26.75;11.45;;;3.30;99.90;;;;;;5076752;28;20544;-50
2023/03/08 00:51:02;;;;;;;31.95;11.68;;;3.30;99.90;;;;;;5069121;28;20569;-51
2023/03/08 00:53:29;;;;;;;;;;;3.40;99.90;;;;;;5071169;28;20091;-52
2023/03/08 00:55:58;;;;;;;24.95;10.32;;;3.50;99.90;;;;;;5070668;28;19924;-51
2023/03/08 00:58:29;;;;;;;25.23;11.20;;;3.50;99.90;;;;;;5053018;28;20040;-50
2023/03/08 01:00:57;;;;;;;24.30;10.70;;;3.50;99.90;;;;;;5062042;28;20044;-52
2023/03/08 01:03:24;;;;;;;23.95;11.32;;;3.50;99.90;;;;;;5073383;28;20048;-53
2023/03/08 01:05:53;;;;;;;27.50;11.13;;;3.60;99.90;;;;;;5091377;28;20048;-52
2023/03/08 01:08:21;;;;;;;26.92;11.70;;;3.60;99.90;;;;;;5067773;28;20048;-53
2023/03/08 01:10:49;;;;;;;22.75;10.38;;;3.40;99.90;;;;;;5071289;28;20033;-51
2023/03/08 01:13:18;;;;;;;25.33;11.50;;;3.50;99.90;;;;;;5070698;28;20425;-50
2023/03/08 01:15:44;;;;;;;26.40;10.63;;;3.50;99.90;;;;;;5071150;28;20105;-51
2023/03/08 01:18:12;;;;;;;25.17;10.52;;;3.50;99.90;;;;;;5058875;28;20109;-49
2023/03/08 01:20:38;;;;;;;25.75;10.48;;;3.40;99.90;;;;;;5075818;28;20101;-51
2023/03/08 01:23:05;;;;;;;24.60;10.27;;;3.40;99.90;;;;;;5071303;28;20090;-50
2023/03/08 01:25:32;;;;;;;22.42;10.48;;;3.40;99.90;;;;;;5068642;28;20051;-51
2023/03/08 01:27:59;;;;;;;24.15;10.05;;;3.40;99.90;;;;;;5060953;28;20048;-50
2023/03/08 01:30:27;;;;;;;22.63;10.10;;;3.40;99.90;;;;;;5069908;28;20460;-51
2023/03/08 01:32:53;;;;;;;22.95;9.88;;;3.40;99.90;;;;;;5052952;28;20082;-51
2023/03/08 01:35:20;;;;;;;22.77;10.02;;;3.40;99.90;;;;;;5060109;28;20143;-52
2023/03/08 01:37:52;;;;;;;24.65;10.02;;;3.40;99.90;;;;;;5052630;28;20106;-50
2023/03/08 01:40:20;;;;;;;21.35;10.20;;;3.40;99.90;;;;;;5052435;28;20040;-50
2023/03/08 01:42:47;;;;;;;24.92;10.75;;;3.50;99.90;;;;;;5070384;28;20370;-51
2023/03/08 01:46:02;;;;;;;24.77;10.45;;;3.60;99.90;;;;;;5053259;28;20036;-50
2023/03/08 01:48:34;;;;;;;26.75;11.02;;;3.60;99.90;;;;;;5036627;28;20061;-50
2023/03/08 01:51:06;;;;;;;27.98;11.60;;;3.60;99.90;;;;;;5076132;28;20550;-50
2023/03/08 01:53:36;;;;;;;24.40;10.82;;;3.60;99.90;;;;;;5062244;28;20488;-49
2023/03/08 01:56:07;;;;;;;27.40;10.93;;;3.60;99.90;;;;;;5056749;28;20044;-51
2023/03/08 01:58:34;;;;;;;27.15;10.95;;;3.50;99.90;;;;;;5060358;28;20040;-50
2023/03/08 02:01:01;;;;;;;24.92;10.63;;;3.40;99.90;;;;;;5067897;28;20578;-53
2023/03/08 02:03:29;;;;;;;26.45;10.32;;;3.40;99.90;;;;;;5073573;28;20087;-51
2023/03/08 02:05:57;;;;;;;26.42;10.88;;;3.40;99.90;;;;;;5074101;28;20382;-53
2023/03/08 02:08:23;;;;;;;;;;;3.40;99.90;;;;;;5056862;28;20049;-50
2023/03/08 02:10:51;;;;;;;27.27;11.55;;;3.50;99.90;;;;;;5069061;28;20390;-52
2023/03/08 02:13:20;;;;;;;26.17;11.23;;;3.50;99.90;;;;;;5082828;28;20060;-55
2023/03/08 02:15:48;;;;;;;30.70;10.55;;;3.40;99.90;;;;;;5060579;28;20516;-50
2023/03/08 02:18:18;;;;;;;25.63;11.13;;;3.40;99.90;;;;;;5074843;28;20032;-53
2023/03/08 02:20:45;;;;;;;26.25;10.75;;;3.40;99.90;;;;;;5071754;28;20528;-53
2023/03/08 02:23:20;;;;;;;17.00;7.70;;;3.30;99.90;;;;;;5071719;28;20048;-53
2023/03/08 02:26:02;;;;;;;27.23;11.20;;;3.30;99.90;;;;;;5078474;28;20040;-51
2023/03/08 02:28:30;;;;;;;27.50;11.25;;;3.40;99.90;;;;;;5056127;28;20048;-51
2023/03/08 02:30:58;;;;;;;24.27;10.52;;;3.40;99.90;;;;;;5073563;28;20048;-51
2023/03/08 02:33:25;;;;;;;24.55;10.90;;;3.30;99.90;;;;;;5074161;28;20033;-50
2023/03/08 02:35:52;;;;;;;26.17;11.35;;;3.30;99.90;;;;;;5055865;28;20682;-52
2023/03/08 02:38:20;;;;;;;26.98;10.63;;;3.20;99.90;;;;;;5073596;28;20037;-51
2023/03/08 02:40:50;;;;;;;27.80;11.32;;;3.20;99.90;;;;;;5056254;28;20040;-53
2023/03/08 02:43:17;;;;;;;27.38;10.60;;;3.10;99.90;;;;;;5073552;28;20401;-50
2023/03/08 02:45:44;;;;;;;25.85;11.38;;;3.00;99.90;;;;;;5056196;28;20041;-50
2023/03/08 02:48:11;;;;;;;30.60;11.88;;;2.90;99.90;;;;;;5076371;28;20493;-52
2023/03/08 02:50:38;;;;;;;27.10;10.43;;;3.00;99.90;;;;;;5060987;28;20036;-51
2023/03/08 02:53:06;;;;;;;25.08;11.13;;;3.00;99.90;;;;;;5056098;28;20090;-50
2023/03/08 02:55:35;;;;;;;24.40;11.02;;;3.00;99.90;;;;;;5055648;28;20052;-50
2023/03/08 02:58:08;;;;;;;22.88;11.05;;;3.10;99.90;;;;;;5056130;28;20404;-53
2023/03/08 03:00:36;;;;;;;27.70;11.30;;;3.10;99.90;;;;;;5081544;28;20436;-50
2023/03/08 03:08:00;;;;;;;31.10;10.98;;;3.10;99.90;;;;;;5086673;28;20127;-57
2023/03/08 03:10:28;;;;;;;22.90;10.00;;;3.10;99.90;;;;;;5069704;28;20044;-53
2023/03/08 03:12:55;;;;;;;23.63;10.90;;;3.10;99.90;;;;;;5059580;28;20048;-56
2023/03/08 03:15:25;;;;;;;24.50;10.35;;;3.10;99.90;;;;;;5082138;28;20043;-52
2023/03/08 03:17:56;;;;;;;23.25;10.73;;;3.10;99.90;;;;;;5088303;28;20093;-57
2023/03/08 03:20:23;;;;;;;25.77;10.98;;;3.00;99.90;;;;;;5115619;27;20035;-51
2023/03/08 03:22:50;;;;;;;23.10;11.02;;;2.90;99.90;;;;;;5111281;27;20088;-55
2023/03/08 03:25:22;;;;;;;26.23;10.75;;;2.90;99.90;;;;;;5087578;28;20380;-51
2023/03/08 03:27:49;;;;;;;25.55;10.50;;;2.90;99.90;;;;;;5095343;28;20117;-57
2023/03/08 03:30:16;;;;;;;26.38;11.02;;;2.80;99.90;;;;;;5095118;28;20044;-56
2023/03/08 03:32:44;;;;;;;;;;;2.90;99.90;;;;;;5095412;28;20044;-55
2023/03/08 03:35:13;;;;;;;;;;;2.90;99.90;;;;;;5087605;28;20018;-55
2023/03/08 03:37:40;;;;;;;25.48;10.27;;;3.00;99.90;;;;;;5095794;28;20375;-56
2023/03/08 03:40:08;;;;;;;28.90;10.77;;;2.90;99.90;;;;;;5078443;28;20059;-54
2023/03/08 03:42:35;;;;;;;28.42;10.95;;;2.90;99.90;;;;;;5089331;28;20130;-54
2023/03/08 03:45:07;;;;;;;24.17;10.75;;;3.00;99.90;;;;;;5095051;28;20116;-57
2023/03/08 03:47:34;;;;;;;;;;;2.90;99.90;;;;;;5088283;28;20109;-56
2023/03/08 03:50:04;;;;;;;26.60;10.82;;;2.90;99.90;;;;;;5094788;28;19920;-55
2023/03/08 03:52:42;;;;;;;29.48;11.23;;;2.90;99.90;;;;;;5094182;28;20039;-54
2023/03/08 03:55:09;;;;;;;28.88;11.32;;;2.90;99.90;;;;;;5093025;28;20135;-55
2023/03/08 03:57:36;;;;;;;25.27;10.70;;;3.00;99.90;;;;;;5093858;28;20392;-52
2023/03/08 04:00:05;;;;;;;30.20;11.30;;;3.00;99.90;;;;;;5094412;28;20048;-53
2023/03/08 04:02:39;;;;;;;29.98;10.93;;;3.00;99.90;;;;;;5113133;28;20127;-55
2023/03/08 04:05:08;;;;;;;24.05;10.63;;;3.00;99.90;;;;;;5092031;28;20048;-57
2023/03/08 04:07:36;;;;;;;28.00;11.45;;;3.00;99.90;;;;;;5094860;28;20051;-54
2023/03/08 04:10:05;;;;;;;24.13;10.55;;;3.00;99.90;;;;;;5093743;28;20147;-53
2023/03/08 04:12:33;;;;;;;25.25;11.40;;;3.00;99.90;;;;;;5094418;28;20050;-54
2023/03/08 04:15:00;;;;;;;29.77;11.82;;;3.10;99.90;;;;;;5120185;27;20035;-51
2023/03/08 04:17:29;;;;;;;27.13;11.80;;;3.00;99.90;;;;;;5087603;28;20036;-57
2023/03/08 04:19:56;;;;;;;27.65;11.48;;;2.90;99.90;;;;;;5109837;28;20055;-56
2023/03/08 04:22:23;;;;;;;31.02;11.90;;;2.90;99.90;;;;;;5083902;28;20083;-56
2023/03/08 04:24:52;;;;;;;29.50;11.90;;;2.80;99.90;;;;;;5095668;28;20380;-52
2023/03/08 04:27:25;;;;;;;27.77;11.75;;;2.90;99.90;;;;;;5106611;28;20677;-54
2023/03/08 04:29:53;;;;;;;25.88;11.35;;;2.90;99.90;;;;;;5092100;28;20067;-53
2023/03/08 04:32:21;;;;;;;27.60;11.10;;;2.90;99.90;;;;;;5102688;28;20042;-52
2023/03/08 04:34:52;;;;;;;26.33;12.25;;;2.90;99.90;;;;;;5094527;28;20412;-55
2023/03/08 04:37:22;;;;;;;31.15;12.32;;;2.80;99.90;;;;;;5093565;28;20105;-52
2023/03/08 04:39:53;;;;;;;29.63;11.93;;;2.80;99.90;;;;;;5066613;28;20051;-55
2023/03/08 04:42:19;;;;;;;25.98;11.02;;;2.80;99.90;;;;;;5094324;28;20453;-51
2023/03/08 04:44:47;;;;;;;27.25;11.65;;;2.70;99.90;;;;;;5110923;28;20040;-55
2023/03/08 04:47:18;;;;;;;28.92;12.35;;;2.60;99.90;;;;;;5089596;28;20044;-55
2023/03/08 04:49:45;;;;;;;31.60;12.02;;;2.50;99.90;;;;;;5099361;28;20055;-56
2023/03/08 04:52:12;;;;;;;28.98;11.95;;;2.50;99.90;;;;;;5073716;28;20397;-54
2023/03/08 04:54:40;;;;;;;33.47;12.85;;;2.40;99.90;;;;;;5073832;28;20463;-52
2023/03/08 04:57:15;;;;;;;29.20;12.23;;;2.40;99.90;;;;;;5079923;28;20059;-53
2023/03/08 04:59:43;;;;;;;27.83;12.13;;;2.30;99.90;;;;;;5088588;28;20126;-55
2023/03/08 05:02:11;;;;;;;28.48;11.75;;;2.30;99.90;;;;;;5077556;28;20051;-53
2023/03/08 05:04:38;;;;;;;28.60;12.52;;;2.30;99.90;;;;;;5082494;28;20762;-54
2023/03/08 05:07:05;;;;;;;29.17;11.23;;;2.30;99.90;;;;;;5081976;28;20040;-52
2023/03/08 05:09:34;;;;;;;24.75;11.00;;;2.30;99.90;;;;;;5109227;28;20051;-53
2023/03/08 05:12:01;;;;;;;28.58;12.32;;;2.20;99.90;;;;;;5073532;28;20565;-55
2023/03/08 05:14:42;;;;;;;43.17;15.43;;;2.20;99.90;;;;;;5089081;28;20126;-53
2023/03/08 05:17:09;;;;;;;25.30;10.43;;;2.20;99.90;;;;;;5110390;28;20048;-55
2023/03/08 05:19:35;;;;;;;30.42;14.40;;;2.20;99.90;;;;;;5093423;28;20043;-54
2023/03/08 05:22:04;;;;;;;33.75;13.43;;;2.10;99.90;;;;;;5090402;28;20412;-56
2023/03/08 05:24:38;;;;;;;29.42;13.38;;;2.10;99.90;;;;;;5084690;28;20112;-56
2023/03/08 05:27:07;;;;;;;25.55;11.90;;;2.20;99.90;;;;;;5086304;28;20118;-54
2023/03/08 05:29:36;;;;;;;30.83;13.02;;;2.20;99.90;;;;;;5080092;28;20035;-56
2023/03/08 05:32:05;;;;;;;31.48;12.60;;;2.20;99.90;;;;;;5085114;28;20048;-55
2023/03/08 05:34:33;;;;;;;32.03;14.30;;;2.10;99.90;;;;;;5089729;28;20043;-55
2023/03/08 05:37:02;;;;;;;34.20;14.05;;;2.10;99.90;;;;;;5077566;28;20100;-56
2023/03/08 05:39:31;;;;;;;36.70;13.32;;;2.10;99.90;;;;;;5075571;28;20063;-51
2023/03/08 05:42:03;;;;;;;36.65;13.73;;;2.00;99.90;;;;;;5111034;28;20036;-56
2023/03/08 05:44:36;;;;;;;37.80;14.60;;;2.00;99.90;;;;;;5092243;28;20069;-54
2023/03/08 05:47:05;;;;;;;49.45;18.25;;;2.00;99.90;;;;;;5086719;28;20050;-54
2023/03/08 05:49:32;;;;;;;52.38;20.92;;;1.90;99.90;;;;;;5092646;28;20040;-55
2023/03/08 05:51:59;;;;;;;37.88;16.15;;;1.90;99.90;;;;;;5110525;28;20035;-53
2023/03/08 05:54:27;;;;;;;39.50;14.52;;;1.90;99.90;;;;;;5090055;28;20130;-57
2023/03/08 05:56:58;;;;;;;31.48;13.73;;;1.90;99.90;;;;;;5075530;28;20047;-52
2023/03/08 05:59:26;;;;;;;35.88;14.40;;;1.80;99.90;;;;;;5088635;28;20039;-55
2023/03/08 06:01:57;;;;;;;27.95;13.30;;;1.90;99.90;;;;;;5081889;28;20047;-55
2023/03/08 06:04:33;;;;;;;34.85;13.93;;;1.90;99.90;;;;;;5078215;28;20174;-52
2023/03/08 06:07:00;;;;;;;25.98;9.40;;;1.90;99.90;;;;;;5091186;28;20048;-56
2023/03/08 06:09:33;;;;;;;35.70;13.23;;;1.90;99.90;;;;;;5099255;28;20089;-53
2023/03/08 06:12:01;;;;;;;28.27;12.52;;;2.00;99.90;;;;;;5091868;28;20046;-53
2023/03/08 06:14:28;;;;;;;;;;;2.00;99.90;;;;;;5109091;28;20044;-51
2023/03/08 06:16:56;;;;;;;27.40;11.77;;;2.10;99.90;;;;;;5100141;28;19919;-51
2023/03/08 06:19:38;;;;;;;33.65;13.10;;;2.10;99.90;;;;;;5081891;28;20035;-56
2023/03/08 06:22:05;;;;;;;35.08;13.98;;;2.20;99.90;;;;;;5091361;28;20043;-53
2023/03/08 06:24:32;;;;;;;36.50;14.52;;;2.30;99.90;;;;;;5091403;28;20046;-53
2023/03/08 06:27:02;;;;;;;33.55;13.73;;;2.40;99.90;;;;;;5092402;28;20044;-52
2023/03/08 06:29:28;;;;;;;28.27;10.77;;;2.50;99.90;;;;;;5110461;28;20449;-53
2023/03/08 06:31:56;;;;;;;42.42;14.82;;;2.60;99.90;;;;;;5092898;28;20071;-57
2023/03/08 06:34:23;;;;;;;35.88;15.77;;;2.70;99.90;;;;;;5086483;28;20051;-54
2023/03/08 06:36:55;;;;;;;38.50;16.15;;;2.80;99.90;;;;;;5092811;27;20039;-53
2023/03/08 06:39:22;;;;;;;38.75;18.38;;;2.80;99.90;;;;;;5100562;28;20063;-55
2023/03/08 06:41:49;;;;;;;44.03;16.25;;;2.80;99.90;;;;;;5096020;28;20507;-54
2023/03/08 06:44:16;;;;;;;;;;;2.80;99.90;;;;;;5093920;28;20454;-55
2023/03/08 06:46:43;;;;;;;45.97;15.45;;;2.80;99.90;;;;;;5113179;28;19923;-56
2023/03/08 06:49:10;;;;;;;41.20;14.82;;;2.80;99.90;;;;;;5092291;28;20043;-51
2023/03/08 06:51:37;;;;;;;34.90;16.70;;;2.90;99.90;;;;;;5094515;28;20395;-54
2023/03/08 06:54:04;;;;;;;29.08;13.68;;;2.90;99.90;;;;;;5095069;28;20052;-51
2023/03/08 06:56:31;;;;;;;33.75;14.15;;;3.00;99.90;;;;;;5113565;28;20036;-53
2023/03/08 06:58:58;;;;;;;32.75;14.63;;;3.00;99.90;;;;;;5095423;28;20054;-52
2023/03/08 07:01:25;;;;;;;31.60;13.75;;;3.20;99.90;;;;;;5104279;28;20345;-53
2023/03/08 07:03:52;;;;;;;35.35;13.82;;;3.30;99.90;;;;;;5113737;28;20047;-52
2023/03/08 07:06:19;;;;;;;31.10;13.18;;;3.40;99.90;;;;;;5110112;28;20047;-53
2023/03/08 07:08:45;;;;;;;33.88;14.15;;;3.50;99.90;;;;;;5113600;28;20036;-53
2023/03/08 07:11:12;;;;;;;32.40;14.23;;;3.50;99.90;;;;;;5113587;28;20071;-55
2023/03/08 07:13:39;;;;;;;36.42;13.68;;;3.50;99.90;;;;;;5112743;28;20048;-53
2023/03/08 07:16:08;;;;;;;31.27;13.05;;;3.50;99.90;;;;;;5106829;28;20105;-53
2023/03/08 07:18:35;;;;;;;32.88;13.68;;;3.40;99.90;;;;;;5113604;28;20047;-54
2023/03/08 07:21:02;;;;;;;31.65;13.80;;;3.40;99.90;;;;;;5092730;28;20100;-52
2023/03/08 07:23:29;;;;;;;39.90;16.38;;;3.40;99.90;;;;;;5115019;27;20055;-55
2023/03/08 07:25:56;;;;;;;34.63;14.98;;;3.40;99.90;;;;;;5133944;27;20107;-56
2023/03/08 07:28:23;;;;;;;41.08;15.07;;;3.50;99.90;;;;;;5117591;27;20035;-54
2023/03/08 07:30:51;;;;;;;31.75;9.63;;;3.60;99.90;;;;;;5106759;28;20077;-51
2023/03/08 07:33:20;;;;;;;39.35;16.17;;;3.70;99.90;;;;;;5113374;28;20097;-56
2023/03/08 07:35:47;;;;;;;32.67;15.70;;;3.70;99.90;;;;;;5112307;28;20036;-52
2023/03/08 07:38:14;;;;;;;34.20;14.38;;;3.90;99.90;;;;;;5112684;28;20044;-53
2023/03/08 07:40:41;;;;;;;34.95;14.75;;;4.10;99.90;;;;;;5113120;28;20044;-51
2023/03/08 07:43:09;;;;;;;36.65;15.02;;;4.30;99.90;;;;;;5113147;28;20109;-53
2023/03/08 07:45:52;;;;;;;37.90;14.85;;;4.60;99.90;;;;;;5109443;28;20053;-54
2023/03/08 07:48:19;;;;;;;31.10;13.98;;;4.80;99.90;;;;;;5112958;28;20046;-54
2023/03/08 07:50:46;;;;;;;29.90;13.70;;;4.90;99.90;;;;;;5104678;28;20109;-54
2023/03/08 07:53:12;;;;;;;33.67;15.23;;;5.10;99.90;;;;;;5111438;28;20088;-56
2023/03/08 07:55:39;;;;;;;35.90;15.68;;;5.10;99.90;;;;;;5112323;28;20102;-52
2023/03/08 07:58:06;;;;;;;38.58;15.85;;;5.20;99.90;;;;;;5112732;28;20044;-51
2023/03/08 08:00:33;;;;;;;43.13;16.63;;;5.20;99.90;;;;;;5104677;28;20036;-51
2023/03/08 08:02:59;;;;;;;33.50;14.77;;;5.20;99.90;;;;;;5115001;27;20043;-53
2023/03/08 08:05:26;;;;;;;35.00;15.07;;;5.20;99.90;;;;;;5133315;27;20150;-53
2023/03/08 08:07:53;;;;;;;35.65;14.75;;;5.20;99.90;;;;;;5128090;27;20093;-55
2023/03/08 08:10:20;;;;;;;25.23;10.88;;;5.10;99.90;;;;;;5105345;28;20492;-55
2023/03/08 08:12:47;;;;;;;34.55;15.68;;;5.10;99.90;;;;;;5130653;27;20031;-52
2023/03/08 08:15:15;;;;;;;35.70;16.38;;;5.20;99.90;;;;;;5133617;27;20047;-53
2023/03/08 08:17:41;;;;;;;41.67;16.63;;;5.20;99.90;;;;;;5107698;27;20092;-52
2023/03/08 08:20:09;;;;;;;30.58;14.60;;;5.30;99.90;;;;;;5122947;27;20097;-53
2023/03/08 08:22:36;;;;;;;37.92;16.42;;;5.30;99.90;;;;;;5132859;27;20046;-51
2023/03/08 08:25:05;;;;;;;37.92;17.23;;;5.30;99.90;;;;;;5111119;27;20044;-55
2023/03/08 08:27:33;;;;;;;35.13;16.40;;;5.40;99.90;;;;;;5117755;27;20039;-52
2023/03/08 08:30:00;;;;;;;30.25;15.32;;;5.40;99.90;;;;;;5119829;27;20059;-52
2023/03/08 08:32:27;;;;;;;;;;;5.50;99.90;;;;;;5107470;28;20092;-51
2023/03/08 08:34:53;;;;;;;40.08;15.45;;;5.50;99.90;;;;;;5111805;28;20403;-53
2023/03/08 08:37:20;;;;;;;33.17;15.30;;;5.50;99.90;;;;;;5106599;28;20039;-56
2023/03/08 08:39:47;;;;;;;32.25;16.00;;;5.50;99.90;;;;;;5101292;28;20069;-55
2023/03/08 08:42:14;;;;;;;32.72;15.88;;;5.50;99.90;;;;;;5125487;27;20445;-54
2023/03/08 08:44:41;;;;;;;34.92;15.85;;;5.60;99.90;;;;;;5132927;27;20043;-51
2023/03/08 08:47:07;;;;;;;32.72;15.73;;;5.70;99.90;;;;;;5127522;27;20048;-51
2023/03/08 08:49:34;;;;;;;35.25;16.48;;;5.80;99.90;;;;;;5105069;28;20073;-55
2023/03/08 08:52:01;;;;;;;35.63;15.30;;;5.90;99.90;;;;;;5132124;27;20080;-52
2023/03/08 08:54:27;;;;;;;32.42;14.10;;;6.10;99.90;;;;;;5104141;28;20044;-52
2023/03/08 08:56:54;;;;;;;30.42;13.98;;;6.30;99.90;;;;;;5073681;28;20445;-51
2023/03/08 08:59:21;;;;;;;28.55;11.25;;;6.50;99.90;;;;;;5105300;28;20109;-52
2023/03/08 09:01:48;;;;;;;33.70;14.85;;;6.70;99.90;;;;;;5092156;28;20037;-52
2023/03/08 09:04:15;;;;;;;30.58;14.68;;;6.80;99.90;;;;;;5098863;22;20048;-51
2023/03/08 09:06:42;;;;;;;31.23;13.68;;;7.00;99.90;;;;;;5069321;28;20047;-51
2023/03/08 09:09:09;;;;;;;34.03;15.25;;;7.20;99.90;;;;;;5079847;28;20044;-55
2023/03/08 09:11:36;;;;;;;31.60;15.20;;;7.10;99.90;;;;;;5071455;28;20064;-53
2023/03/08 09:14:17;;;;;;;35.97;16.02;;;7.10;99.90;;;;;;5083866;28;20047;-51
2023/03/08 09:16:44;;;;;;;31.50;15.05;;;7.00;99.90;;;;;;5089989;28;20047;-50
2023/03/08 09:19:11;;;;;;;32.80;15.93;;;7.00;99.90;;;;;;5071270;28;20040;-54
2023/03/08 09:21:38;;;;;;;32.55;14.85;;;7.00;99.90;;;;;;5070261;28;20041;-52
2023/03/08 09:24:05;;;;;;;31.52;14.10;;;7.00;99.90;;;;;;5070465;28;20040;-54
2023/03/08 09:26:33;;;;;;;33.78;15.63;;;7.10;99.90;;;;;;5071383;28;20036;-51
2023/03/08 09:29:03;;;;;;;32.38;15.18;;;7.10;99.90;;;;;;5070391;28;20088;-50
2023/03/08 09:31:32;;;;;;;31.02;14.70;;;7.00;99.90;;;;;;5077191;28;20046;-51
2023/03/08 09:33:59;;;;;;;30.67;14.75;;;7.10;99.90;;;;;;5090829;28;20044;-50
2023/03/08 09:36:29;;;;;;;32.55;14.50;;;7.30;99.90;;;;;;5090494;28;20074;-52
2023/03/08 09:38:56;;;;;;;33.80;14.35;;;7.50;99.90;;;;;;5087994;28;20083;-50
2023/03/08 09:41:38;;;;;;;33.45;13.75;;;7.80;99.90;;;;;;5070855;28;20044;-50
2023/03/08 09:44:16;;;;;;;31.83;14.82;;;8.10;99.90;;;;;;5070711;28;20049;-50
2023/03/08 09:46:45;;;;;;;;;;;8.10;99.90;;;;;;5072239;28;20040;-50
2023/03/08 09:49:14;;;;;;;;;;;8.00;99.90;;;;;;5073103;28;19928;-51
2023/03/08 09:51:46;;;;;;;30.15;15.40;;;7.90;99.90;;;;;;5071024;28;19970;-51
2023/03/08 09:54:18;;;;;;;36.80;15.25;;;7.80;99.90;;;;;;5070432;28;20481;-54
2023/03/08 09:56:51;;;;;;;31.60;14.82;;;7.80;99.90;;;;;;5072254;28;20102;-52
2023/03/08 09:59:33;;;;;;;29.30;14.65;;;7.90;99.90;;;;;;5082365;28;20051;-54
2023/03/08 10:02:34;;;;;;;34.17;15.02;;;8.00;99.90;;;;;;5078019;28;20489;-50
2023/03/08 10:05:22;;;;;;;33.85;15.38;;;8.10;99.90;;;;;;5037550;28;20078;-53
2023/03/08 10:08:06;;;;;;;35.13;15.02;;;8.00;99.90;;;;;;5091095;28;20040;-51
2023/03/08 10:10:51;;;;;;;27.92;13.77;;;8.20;99.90;;;;;;5092545;28;20041;-50
2023/03/08 10:13:33;;;;;;;33.70;14.38;;;8.20;99.90;;;;;;5084533;28;20037;-54
2023/03/08 10:16:03;;;;;;;33.58;14.07;;;8.40;99.90;;;;;;5078427;28;20048;-50
2023/03/08 10:18:58;;;;;;;30.00;13.48;;;8.80;99.90;;;;;;5087505;28;20036;-53
2023/03/08 10:21:28;;;;;;;28.27;13.95;;;9.20;99.90;;;;;;5097564;28;20044;-54
2023/03/08 10:24:13;;;;;;;32.60;13.93;;;9.40;99.90;;;;;;5092955;28;20048;-51
2023/03/08 10:26:42;;;;;;;31.88;13.98;;;9.50;99.90;;;;;;5076480;28;20509;-52
2023/03/08 10:29:11;;;;;;;31.42;13.57;;;9.50;99.90;;;;;;5073888;28;20447;-50
2023/03/08 10:31:42;;;;;;;30.73;14.15;;;9.30;99.90;;;;;;5074022;28;20043;-51
2023/03/08 10:34:18;;;;;;;31.98;14.13;;;9.30;99.90;;;;;;5080435;28;20097;-51
2023/03/08 10:36:51;;;;;;;32.50;14.80;;;9.30;99.90;;;;;;5074089;28;20503;-51
2023/03/08 10:39:19;;;;;;;31.70;14.95;;;9.40;99.90;;;;;;5085021;28;20044;-53
2023/03/08 10:41:50;;;;;;;31.35;14.35;;;9.50;99.90;;;;;;5086648;28;20389;-52
2023/03/08 10:44:32;;;;;;;34.05;14.20;;;9.50;99.90;;;;;;5073112;28;20492;-50
2023/03/08 10:47:03;;;;;;;32.22;14.35;;;9.50;99.90;;;;;;5082980;28;20098;-53
2023/03/08 10:49:29;;;;;;;32.58;14.25;;;9.60;99.90;;;;;;5075771;28;20055;-54
2023/03/08 10:51:59;;;;;;;29.90;14.75;;;9.70;99.90;;;;;;5093608;28;20094;-51
2023/03/08 10:54:27;;;;;;;29.70;13.73;;;9.50;99.90;;;;;;5094169;28;20097;-52
2023/03/08 10:56:58;;;;;;;31.05;14.60;;;9.40;99.90;;;;;;5085759;28;20044;-53
2023/03/08 10:59:31;;;;;;;29.80;14.38;;;9.30;99.90;;;;;;5093432;28;20109;-52
2023/03/08 11:02:21;;;;;;;30.45;14.35;;;9.30;99.90;;;;;;5093799;28;20040;-50
2023/03/08 11:04:56;;;;;;;31.98;14.55;;;9.40;99.90;;;;;;5075761;28;20044;-52
2023/03/08 11:07:32;;;;;;;29.85;13.65;;;9.50;99.90;;;;;;5087906;28;20075;-54
2023/03/08 11:10:19;;;;;;;28.65;13.15;;;9.20;99.90;;;;;;5093251;28;20044;-50
2023/03/08 11:12:46;;;;;;;35.42;13.55;;;9.30;99.90;;;;;;5073942;28;20267;-51
2023/03/08 11:15:19;;;;;;;30.30;13.75;;;9.50;99.70;;;;;;5092258;28;20134;-52
2023/03/08 11:18:14;;;;;;;28.35;14.40;;;9.60;99.90;;;;;;5093418;28;20040;-51
2023/03/08 11:20:53;;;;;;;29.23;13.00;;;9.80;99.90;;;;;;5070676;28;20052;-51
2023/03/08 11:23:31;;;;;;;31.83;13.90;;;10.00;98.60;;;;;;5078607;28;20105;-51
2023/03/08 11:26:01;;;;;;;27.17;12.20;;;10.20;98.10;;;;;;5093759;28;20040;-52
2023/03/08 11:28:42;;;;;;;27.95;13.65;;;10.20;97.40;;;;;;5093031;28;20491;-53
2023/03/08 11:31:21;;;;;;;25.77;13.25;;;10.10;97.50;;;;;;5084590;28;20485;-52
2023/03/08 11:34:21;;;;;;;30.08;13.43;;;9.90;97.80;;;;;;5093135;28;20510;-52
2023/03/08 11:37:13;;;;;;;23.88;13.18;;;9.90;97.50;;;;;;5092240;28;20081;-53
2023/03/08 11:39:57;;;;;;;31.00;13.98;;;9.90;97.90;;;;;;5073503;28;20562;-51
2023/03/08 11:42:40;;;;;;;26.20;12.98;;;9.80;98.10;;;;;;5073222;28;20041;-50
2023/03/08 11:45:18;;;;;;;35.92;15.13;;;9.50;98.50;;;;;;5092044;28;20376;-53
2023/03/08 11:47:52;;;;;;;32.28;13.80;;;9.40;98.20;;;;;;5092427;28;20077;-51
2023/03/08 11:50:27;;;;;;;32.10;14.45;;;9.10;99.20;;;;;;5092919;28;20247;-50
2023/03/08 11:53:31;;;;;;;30.67;13.77;;;9.20;99.40;;;;;;5073684;28;20048;-52
2023/03/08 11:56:27;;;;;;;35.42;14.02;;;9.30;98.60;;;;;;5072478;28;20095;-50
2023/03/08 11:59:02;;;;;;;34.90;14.38;;;9.50;98.90;;;;;;5072381;28;20093;-51
2023/03/08 12:01:45;;;;;;;28.05;13.43;;;9.90;98.80;;;;;;5083558;28;20078;-51
2023/03/08 12:04:23;;;;;;;30.48;13.40;;;10.20;98.50;;;;;;5084007;28;20055;-53
2023/03/08 12:06:53;;;;;;;;;;;10.30;97.20;;;;;;5093271;28;20044;-51
2023/03/08 12:09:27;;;;;;;27.77;13.82;;;10.30;96.80;;;;;;5091197;28;19931;-51
2023/03/08 12:12:04;;;;;;;35.10;14.70;;;10.20;97.30;;;;;;5092476;28;20051;-52
2023/03/08 12:14:42;;;;;;;28.75;14.15;;;10.10;98.20;;;;;;5090675;28;20550;-50
2023/03/08 12:17:23;;;;;;;28.98;14.38;;;10.10;97.60;;;;;;5075420;28;20041;-51
2023/03/08 12:19:50;;;;;;;29.30;13.93;;;10.10;98.70;;;;;;5091044;28;20048;-51
2023/03/08 12:22:27;;;;;;;28.80;14.57;;;10.80;98.10;;;;;;5092654;28;20036;-51
2023/03/08 12:24:57;;;;;;;27.02;14.18;;;10.20;97.60;;;;;;5090721;28;20043;-50
2023/03/08 12:27:35;;;;;;;28.20;13.63;;;10.20;98.50;;;;;;5079231;28;20044;-51
2023/03/08 12:30:08;;;;;;;33.58;14.40;;;10.10;98.10;;;;;;5071362;28;20127;-52
2023/03/08 12:32:40;;;;;;;28.48;14.07;;;10.10;97.90;;;;;;5076959;28;20032;-50
2023/03/08 12:35:22;;;;;;;26.67;13.30;;;10.10;98.30;;;;;;5092039;28;20492;-52
2023/03/08 12:38:02;;;;;;;30.05;14.80;;;10.30;98.20;;;;;;5091169;28;20043;-51
2023/03/08 12:40:50;;;;;;;34.72;15.13;;;10.50;98.70;;;;;;5091677;28;20048;-52
2023/03/08 12:43:20;;;;;;;28.42;14.02;;;10.50;97.50;;;;;;5091044;28;20081;-53
2023/03/08 12:45:58;;;;;;;29.00;14.48;;;10.50;97.40;;;;;;5082709;28;20094;-51
2023/03/08 12:48:53;;;;;;;24.88;13.50;;;10.70;97.40;;;;;;5084336;28;20123;-53
2023/03/08 12:51:25;;;;;;;29.45;13.88;;;11.00;97.00;;;;;;5087538;28;20461;-52
2023/03/08 12:53:52;;;;;;;26.30;13.70;;;11.40;98.00;;;;;;5089254;28;20044;-52
2023/03/08 12:56:49;;;;;;;36.13;14.82;;;11.30;96.90;;;;;;5087922;28;20102;-50
2023/03/08 12:59:16;;;;;;;29.33;13.70;;;11.40;96.90;;;;;;5061787;28;20456;-50
2023/03/08 13:01:57;;;;;;;29.48;14.45;;;11.50;96.90;;;;;;5071447;28;20079;-51
2023/03/08 13:04:26;;;;;;;32.95;14.40;;;11.70;96.60;;;;;;5072724;28;20044;-52